Mills, Kentucky
Current Conditions -  °F | °C
As of 10:55 PM on Friday 24 Oct 2014 (Local Time) from K1A6 Reporting Station
Clear Clear  
Wind Chill: 43°   Ceiling: Unl
Heat Index: 43°   Visibility: 10mi
Dew Point: 42°   Wind: 0mph
Humidity: 95%   Direction: NA
Pressure: 30.11"   Gusts: NA
Location:  36.8337°N, 83.7599°W
Report Text: K1A6 250255Z AUTO 00000KT 10SM CLR 06/05 A3011 RMK AO2 T00620054
Loading
Personal Weather Stations






























Interactive Weather Map
Tropical Storm Tracking
New forecast layout! Learn more

10-Day Weather Forecast

Advertisements
Track Severe Weather on mobile